createdAt,value
2022-08-22T00:01:51.104Z,21.68
2022-08-22T00:03:52.452Z,21.66
2022-08-22T00:05:53.847Z,21.63
2022-08-22T00:07:55.223Z,21.62
2022-08-22T00:09:57.388Z,21.61
2022-08-22T00:11:59.264Z,21.64
2022-08-22T00:14:01.985Z,21.68
2022-08-22T00:16:03.436Z,21.67
2022-08-22T00:18:05.574Z,20.34
2022-08-22T00:20:07.216Z,21.61
2022-08-22T00:22:09.161Z,21.63
2022-08-22T00:24:10.500Z,21.60
2022-08-22T00:26:11.819Z,21.58
2022-08-22T00:28:13.554Z,21.61
2022-08-22T00:30:15.523Z,21.63
2022-08-22T00:32:16.903Z,21.62
2022-08-22T00:34:18.273Z,21.61
2022-08-22T00:36:20.053Z,21.60
2022-08-22T00:38:22.034Z,21.58
2022-08-22T00:40:23.437Z,21.53
2022-08-22T00:42:29.498Z,21.58
2022-08-22T00:44:33.279Z,21.64
2022-08-22T00:46:34.627Z,21.60
2022-08-22T00:48:35.947Z,21.60
2022-08-22T00:50:37.324Z,21.61
2022-08-22T00:52:38.683Z,21.63
2022-08-22T00:54:40.022Z,21.57
2022-08-22T00:56:41.422Z,21.55
2022-08-22T00:58:46.548Z,21.51
2022-08-22T01:00:47.875Z,21.50
2022-08-22T01:02:52.429Z,21.52
2022-08-22T01:04:54.128Z,21.59
2022-08-22T01:06:55.426Z,21.53
2022-08-22T01:08:56.793Z,21.53
2022-08-22T01:10:58.334Z,21.47
2022-08-22T01:12:59.643Z,21.49
2022-08-22T01:15:00.964Z,21.58
2022-08-22T01:17:02.345Z,21.52
2022-08-22T01:19:03.690Z,21.50
2022-08-22T01:21:04.994Z,21.49
2022-08-22T01:23:06.310Z,21.45
2022-08-22T01:25:22.448Z,21.43
2022-08-22T01:27:27.345Z,21.38
2022-08-22T01:29:29.762Z,21.42
2022-08-22T01:31:31.803Z,21.40
2022-08-22T01:33:33.191Z,21.42
2022-08-22T01:35:34.507Z,21.40
2022-08-22T01:37:35.863Z,21.40
2022-08-22T01:39:44.930Z,21.39
2022-08-22T01:41:46.255Z,21.39
2022-08-22T01:43:59.253Z,21.38
2022-08-22T01:46:01.606Z,21.37
2022-08-22T01:48:02.923Z,21.36
2022-08-22T01:50:04.223Z,21.35
2022-08-22T01:52:05.591Z,21.35
2022-08-22T01:54:06.903Z,21.31
2022-08-22T01:56:08.215Z,21.37
2022-08-22T01:58:09.515Z,21.42
2022-08-22T02:00:10.854Z,21.41
2022-08-22T02:02:12.149Z,21.44
2022-08-22T02:04:13.473Z,21.44
2022-08-22T02:06:14.818Z,21.45
2022-08-22T02:08:16.118Z,21.40
2022-08-22T02:10:17.502Z,21.33
2022-08-22T02:12:22.118Z,21.25
2022-08-22T02:14:23.560Z,21.17
2022-08-22T02:16:24.890Z,21.24
2022-08-22T02:18:26.191Z,21.26
2022-08-22T02:20:27.511Z,21.27
2022-08-22T02:22:28.805Z,21.33
2022-08-22T02:24:30.105Z,21.29
2022-08-22T02:26:31.443Z,21.33
2022-08-22T02:28:33.010Z,21.36
2022-08-22T02:30:34.359Z,21.35
2022-08-22T02:32:35.661Z,21.36
2022-08-22T02:34:37.302Z,21.35
2022-08-22T02:36:38.775Z,21.32
2022-08-22T02:38:40.126Z,21.36
2022-08-22T02:40:41.443Z,21.38
2022-08-22T02:42:43.224Z,21.55
2022-08-22T02:44:44.835Z,21.34
2022-08-22T02:46:47.030Z,21.19
2022-08-22T02:48:49.206Z,21.15
2022-08-22T02:50:50.501Z,21.06
2022-08-22T02:52:54.018Z,21.06
2022-08-22T02:54:55.351Z,21.52
2022-08-22T02:56:56.710Z,21.78
2022-08-22T02:58:59.986Z,21.78
2022-08-22T03:01:01.570Z,21.76
2022-08-22T03:03:02.919Z,21.73
2022-08-22T03:05:04.222Z,21.72
2022-08-22T03:07:05.755Z,21.71
2022-08-22T03:09:07.307Z,21.71
2022-08-22T03:11:08.643Z,21.71
2022-08-22T03:13:09.954Z,21.70
2022-08-22T03:15:11.266Z,21.69
2022-08-22T03:17:12.586Z,21.69
2022-08-22T03:19:18.870Z,21.69
2022-08-22T03:21:20.394Z,21.68
2022-08-22T03:23:21.696Z,21.69
2022-08-22T03:25:23.044Z,21.68
2022-08-22T03:27:32.757Z,21.69
2022-08-22T03:29:35.071Z,21.68
2022-08-22T03:31:36.409Z,21.67
2022-08-22T03:33:37.715Z,21.67
2022-08-22T03:35:39.058Z,21.68
2022-08-22T03:37:43.580Z,21.67
2022-08-22T03:39:44.979Z,21.66
2022-08-22T03:41:46.858Z,21.67
2022-08-22T03:43:48.186Z,21.67
2022-08-22T03:45:49.482Z,21.66
2022-08-22T03:47:50.791Z,21.66
2022-08-22T03:49:54.060Z,21.65
2022-08-22T03:51:57.043Z,21.66
2022-08-22T03:53:58.338Z,21.65
2022-08-22T03:55:59.651Z,21.65
2022-08-22T03:58:01.008Z,21.66
2022-08-22T04:00:02.831Z,21.64
2022-08-22T04:02:04.161Z,21.64
2022-08-22T04:04:25.561Z,21.64
2022-08-22T04:06:29.066Z,21.64
2022-08-22T04:08:31.796Z,21.64
2022-08-22T04:10:33.634Z,21.64
2022-08-22T04:12:34.930Z,21.65
2022-08-22T04:14:36.363Z,21.64
2022-08-22T04:16:37.733Z,21.64
2022-08-22T04:18:39.029Z,20.76
2022-08-22T04:20:41.390Z,21.64
2022-08-22T04:22:42.733Z,21.64
2022-08-22T04:24:44.087Z,21.63
2022-08-22T04:26:50.268Z,21.63
2022-08-22T04:28:51.567Z,21.63
2022-08-22T04:30:53.046Z,21.64
2022-08-22T04:32:54.358Z,21.63
2022-08-22T04:34:55.902Z,21.64
2022-08-22T04:36:57.848Z,21.64
2022-08-22T04:38:59.186Z,21.64
2022-08-22T04:41:04.416Z,21.63
2022-08-22T04:43:06.587Z,21.64
2022-08-22T04:45:08.076Z,21.62
2022-08-22T04:47:09.727Z,21.62
2022-08-22T04:49:11.501Z,21.62
2022-08-22T04:51:12.897Z,21.63
2022-08-22T04:53:14.254Z,21.61
2022-08-22T04:55:15.643Z,21.63
2022-08-22T04:57:16.967Z,21.62
2022-08-22T04:59:18.296Z,21.63
2022-08-22T05:01:19.727Z,21.62
2022-08-22T05:03:21.090Z,21.62
2022-08-22T05:05:22.395Z,21.62
2022-08-22T05:07:23.703Z,21.62
2022-08-22T05:09:25.030Z,21.62
2022-08-22T05:11:26.375Z,21.61
2022-08-22T05:13:27.681Z,21.61
2022-08-22T05:15:29.030Z,21.62
2022-08-22T05:17:30.321Z,21.61
2022-08-22T05:19:32.325Z,21.62
2022-08-22T05:21:33.840Z,21.61
2022-08-22T05:23:35.207Z,21.62
2022-08-22T05:25:36.923Z,21.60
2022-08-22T05:27:38.239Z,21.62
2022-08-22T05:29:39.533Z,21.61
2022-08-22T05:31:40.851Z,21.61
2022-08-22T05:33:42.162Z,21.61
2022-08-22T05:35:47.258Z,21.61
2022-08-22T05:37:50.977Z,21.62
2022-08-22T05:39:52.321Z,21.61
2022-08-22T05:41:53.678Z,21.61
2022-08-22T05:43:55.287Z,21.61
2022-08-22T05:45:57.172Z,21.62
2022-08-22T05:47:59.057Z,21.61
2022-08-22T05:50:01.794Z,21.61
2022-08-22T05:52:03.159Z,21.61
2022-08-22T05:54:05.151Z,21.61
2022-08-22T05:56:06.598Z,20.72
2022-08-22T05:58:08.135Z,21.61
2022-08-22T06:00:12.239Z,21.61
2022-08-22T06:02:13.670Z,21.60
2022-08-22T06:04:15.026Z,21.60
2022-08-22T06:06:16.354Z,21.61
2022-08-22T06:08:17.691Z,21.60
2022-08-22T06:10:19.027Z,21.60
2022-08-22T06:12:22.093Z,21.61
2022-08-22T06:14:24.893Z,21.60
2022-08-22T06:16:26.319Z,21.61
2022-08-22T06:18:27.631Z,21.60
2022-08-22T06:20:29.037Z,21.61
2022-08-22T06:22:30.403Z,21.61
2022-08-22T06:24:31.783Z,21.61
2022-08-22T06:26:34.623Z,21.60
2022-08-22T06:28:36.666Z,21.61
2022-08-22T06:30:38.049Z,21.61
2022-08-22T06:32:59.523Z,21.35
2022-08-22T06:35:00.721Z,21.61
2022-08-22T06:37:03.510Z,21.60
2022-08-22T06:39:05.638Z,21.61
2022-08-22T06:41:06.997Z,21.61
2022-08-22T06:43:08.818Z,21.61
2022-08-22T06:45:10.143Z,21.61
2022-08-22T06:47:11.467Z,21.61
2022-08-22T06:49:12.784Z,21.61
2022-08-22T06:51:14.153Z,21.61
2022-08-22T06:53:15.450Z,21.61
2022-08-22T06:55:16.794Z,21.62
2022-08-22T06:57:18.089Z,21.62
2022-08-22T06:59:20.763Z,21.61
2022-08-22T07:01:22.110Z,21.61
2022-08-22T07:03:23.463Z,21.61
2022-08-22T07:05:25.150Z,21.61
2022-08-22T07:07:26.550Z,21.62
2022-08-22T07:09:28.163Z,21.62
2022-08-22T07:11:29.517Z,21.62
2022-08-22T07:13:30.810Z,21.62
2022-08-22T07:15:36.581Z,21.62
2022-08-22T07:17:40.575Z,21.62
2022-08-22T07:19:42.047Z,21.62
2022-08-22T07:21:43.381Z,21.62
2022-08-22T07:23:47.953Z,21.62
2022-08-22T07:25:49.273Z,21.63
2022-08-22T07:27:50.609Z,21.61
2022-08-22T07:29:51.951Z,21.61
2022-08-22T07:31:53.265Z,21.62
2022-08-22T07:33:54.650Z,21.62
2022-08-22T07:35:56.010Z,21.62
2022-08-22T07:37:57.831Z,21.62
2022-08-22T07:39:59.331Z,21.63
2022-08-22T07:42:01.827Z,21.63
2022-08-22T07:44:03.147Z,21.63
2022-08-22T07:46:04.462Z,21.63
2022-08-22T07:48:05.791Z,21.64
2022-08-22T07:50:08.047Z,21.65
2022-08-22T07:52:09.367Z,21.66
2022-08-22T07:54:10.658Z,21.66
2022-08-22T07:56:11.999Z,21.66
2022-08-22T07:58:13.579Z,21.68
2022-08-22T08:00:14.902Z,21.69
2022-08-22T08:02:16.211Z,21.71
2022-08-22T08:04:17.601Z,21.70
2022-08-22T08:06:18.898Z,21.71
2022-08-22T08:08:20.530Z,21.72
2022-08-22T08:10:21.843Z,21.72
2022-08-22T08:12:23.159Z,21.73
2022-08-22T08:14:24.495Z,21.72
2022-08-22T08:16:26.732Z,21.72
2022-08-22T08:18:29.379Z,21.72
2022-08-22T08:20:30.744Z,21.72
2022-08-22T08:22:32.050Z,21.71
2022-08-22T08:24:40.487Z,21.70
2022-08-22T08:27:05.738Z,21.71
2022-08-22T08:29:07.372Z,21.70
2022-08-22T08:31:08.708Z,21.71
2022-08-22T08:33:24.228Z,21.69
2022-08-22T08:35:27.975Z,21.69
2022-08-22T08:37:29.281Z,21.69
2022-08-22T08:39:35.263Z,21.69
2022-08-22T08:41:37.002Z,21.69
2022-08-22T08:43:38.326Z,21.70
2022-08-22T08:45:39.667Z,21.69
2022-08-22T08:47:41.033Z,21.68
2022-08-22T08:49:42.778Z,21.67
2022-08-22T08:51:44.282Z,21.67
2022-08-22T08:53:46.450Z,21.68
2022-08-22T08:55:47.773Z,21.68
2022-08-22T08:57:49.427Z,21.70
2022-08-22T08:59:50.751Z,21.69
2022-08-22T09:01:53.323Z,21.68
2022-08-22T09:03:54.690Z,21.67
2022-08-22T09:05:56.019Z,21.67
2022-08-22T09:07:57.903Z,21.67
2022-08-22T09:09:59.783Z,21.66
2022-08-22T09:12:01.877Z,21.66
2022-08-22T09:14:03.330Z,21.66
2022-08-22T09:16:05.510Z,21.66
2022-08-22T09:18:07.071Z,21.65
2022-08-22T09:20:17.685Z,21.65
2022-08-22T09:22:20.927Z,21.63
2022-08-22T09:26:43.551Z,21.61
2022-08-22T09:28:47.666Z,21.61
2022-08-22T09:30:49.001Z,21.61
2022-08-22T09:32:55.771Z,21.62
2022-08-22T09:34:57.417Z,21.61
2022-08-22T09:37:00.903Z,21.62
2022-08-22T09:39:02.290Z,21.60
2022-08-22T09:41:03.630Z,21.60
2022-08-22T09:43:06.310Z,21.62
2022-08-22T09:45:08.075Z,21.62
2022-08-22T09:47:10.705Z,21.63
2022-08-22T09:49:12.243Z,21.66
2022-08-22T09:51:31.803Z,21.67
2022-08-22T09:53:34.636Z,21.68
2022-08-22T09:55:35.958Z,21.69
2022-08-22T09:57:37.312Z,21.69
2022-08-22T09:59:39.003Z,21.69
2022-08-22T10:01:42.227Z,21.68
2022-08-22T10:03:43.774Z,21.69
2022-08-22T10:05:46.376Z,21.68
2022-08-22T10:07:47.888Z,21.68
2022-08-22T10:09:54.941Z,21.68
2022-08-22T10:11:57.024Z,21.68
2022-08-22T10:14:01.250Z,21.69
2022-08-22T10:16:03.126Z,21.68
2022-08-22T10:18:04.559Z,21.67
2022-08-22T10:20:06.303Z,21.66
2022-08-22T10:22:07.666Z,21.65
2022-08-22T10:24:08.975Z,21.65
2022-08-22T10:26:10.727Z,21.64
2022-08-22T10:28:24.055Z,21.64
2022-08-22T10:30:29.903Z,21.66
2022-08-22T10:32:31.627Z,21.66
2022-08-22T10:34:33.058Z,21.69
2022-08-22T10:36:34.368Z,21.69
2022-08-22T10:38:46.456Z,21.70
2022-08-22T10:40:48.383Z,21.70
2022-08-22T10:42:49.722Z,21.70
2022-08-22T10:44:55.135Z,21.70
2022-08-22T10:46:57.124Z,21.69
2022-08-22T10:48:58.547Z,21.70
2022-08-22T10:50:59.847Z,21.69
2022-08-22T10:53:28.947Z,21.69
2022-08-22T10:55:31.083Z,21.68
2022-08-22T10:57:33.203Z,21.68
2022-08-22T10:59:34.613Z,21.67
2022-08-22T11:01:41.938Z,21.67
2022-08-22T11:03:43.786Z,21.66
2022-08-22T11:05:50.019Z,21.69
2022-08-22T11:07:52.147Z,21.68
2022-08-22T11:09:55.200Z,21.69
2022-08-22T11:11:56.554Z,21.69
2022-08-22T11:13:57.861Z,21.70
2022-08-22T11:15:59.462Z,21.70
2022-08-22T11:18:00.766Z,21.71
2022-08-22T11:20:07.162Z,21.70
2022-08-22T11:22:10.434Z,21.69
2022-08-22T11:24:17.164Z,21.70
2022-08-22T11:26:30.053Z,21.69
2022-08-22T11:28:37.115Z,21.69
2022-08-22T11:30:44.487Z,21.69
2022-08-22T11:32:46.626Z,21.69
2022-08-22T11:34:47.966Z,21.69
2022-08-22T11:36:51.402Z,21.68
2022-08-22T11:38:53.287Z,21.68
2022-08-22T11:40:54.643Z,21.68
2022-08-22T11:42:55.964Z,21.69
2022-08-22T11:45:00.425Z,21.68
2022-08-22T11:47:01.738Z,21.68
2022-08-22T11:49:03.076Z,21.68
2022-08-22T11:51:04.423Z,21.69
2022-08-22T11:53:14.984Z,21.68
2022-08-22T11:55:16.905Z,21.68
2022-08-22T11:57:19.035Z,21.69
2022-08-22T11:59:20.334Z,21.68
2022-08-22T12:01:23.930Z,21.67
2022-08-22T12:03:25.311Z,21.68
2022-08-22T12:05:27.260Z,21.67
2022-08-22T12:07:28.646Z,21.67
2022-08-22T12:09:30.071Z,21.67
2022-08-22T12:11:31.371Z,21.66
2022-08-22T12:13:35.215Z,21.65
2022-08-22T12:15:36.971Z,21.67
2022-08-22T12:17:55.877Z,21.65
2022-08-22T12:20:18.750Z,21.65
2022-08-22T12:22:20.183Z,21.64
2022-08-22T12:24:21.588Z,21.64
2022-08-22T12:26:22.899Z,21.64
2022-08-22T12:28:25.402Z,21.63
2022-08-22T12:30:27.365Z,21.63
2022-08-22T12:32:34.130Z,21.62
2022-08-22T12:34:35.616Z,21.62
2022-08-22T12:36:37.372Z,21.61
2022-08-22T12:38:38.731Z,21.61
2022-08-22T12:40:40.073Z,21.61
2022-08-22T12:42:46.203Z,21.66
2022-08-22T12:44:47.628Z,22.31
2022-08-22T12:48:52.332Z,22.72
2022-08-22T12:50:53.727Z,22.83
2022-08-22T12:52:55.127Z,22.92
2022-08-22T12:54:56.443Z,22.95
2022-08-22T12:56:57.803Z,23.03
2022-08-22T12:58:59.118Z,23.14
2022-08-22T13:01:00.497Z,23.14
2022-08-22T13:03:02.072Z,23.16
2022-08-22T13:05:03.568Z,23.29
2022-08-22T13:07:06.715Z,23.29
2022-08-22T13:09:09.991Z,23.30
2022-08-22T13:11:12.428Z,23.34
2022-08-22T13:13:31.677Z,23.37
2022-08-22T13:15:38.717Z,23.33
2022-08-22T13:17:43.305Z,23.31
2022-08-22T13:19:44.631Z,23.36
2022-08-22T13:21:45.968Z,23.42
2022-08-22T13:23:50.781Z,23.44
2022-08-22T13:25:52.215Z,23.32
2022-08-22T13:27:53.549Z,22.86
2022-08-22T13:29:54.857Z,23.12
2022-08-22T13:32:00.390Z,23.29
2022-08-22T13:34:01.934Z,23.41
2022-08-22T13:36:03.399Z,23.43
2022-08-22T13:38:04.878Z,23.48
2022-08-22T13:40:06.340Z,23.45
2022-08-22T13:42:14.614Z,23.46
2022-08-22T13:44:28.871Z,23.51
2022-08-22T13:46:30.410Z,23.51
2022-08-22T13:48:37.135Z,23.58
2022-08-22T13:50:53.451Z,23.58
2022-08-22T13:52:55.465Z,23.60
2022-08-22T13:54:56.921Z,23.64
2022-08-22T13:56:58.759Z,23.61
2022-08-22T13:59:00.123Z,23.07
2022-08-22T14:01:01.435Z,23.32
2022-08-22T14:03:05.407Z,23.49
2022-08-22T14:05:07.076Z,23.60
2022-08-22T14:07:08.403Z,23.70
2022-08-22T14:09:09.743Z,23.65
2022-08-22T14:11:12.221Z,23.70
2022-08-22T14:13:13.527Z,23.72
2022-08-22T14:15:15.273Z,23.69
2022-08-22T14:17:16.696Z,23.74
2022-08-22T14:19:19.094Z,23.76
2022-08-22T14:21:20.472Z,23.76
2022-08-22T14:23:21.787Z,23.74
2022-08-22T14:25:25.284Z,23.82
2022-08-22T14:27:26.954Z,23.58
2022-08-22T14:29:29.151Z,22.56
2022-08-22T14:31:33.247Z,23.67
2022-08-22T14:33:35.418Z,23.67
2022-08-22T14:35:37.917Z,23.62
2022-08-22T14:37:40.100Z,23.40
2022-08-22T14:39:42.861Z,23.55
2022-08-22T14:41:56.330Z,23.69
2022-08-22T14:43:59.886Z,23.71
2022-08-22T14:46:02.127Z,23.73
2022-08-22T14:48:30.196Z,23.71
2022-08-22T14:50:24.962Z,23.77
2022-08-22T14:52:26.502Z,23.73
2022-08-22T14:54:30.987Z,23.37
2022-08-22T14:56:32.707Z,23.10
2022-08-22T14:58:34.018Z,23.45
2022-08-22T15:00:35.382Z,23.68
2022-08-22T15:02:36.686Z,23.74
2022-08-22T15:04:38.155Z,23.77
2022-08-22T15:06:47.636Z,23.77
2022-08-22T15:08:49.709Z,23.83
2022-08-22T15:10:51.071Z,23.82
2022-08-22T15:12:53.888Z,23.78
2022-08-22T15:14:55.439Z,23.87
2022-08-22T15:16:57.011Z,23.91
2022-08-22T15:18:58.535Z,23.83
2022-08-22T15:20:59.834Z,23.90
2022-08-22T15:23:02.130Z,23.81
2022-08-22T15:25:03.724Z,23.89
2022-08-22T15:27:06.789Z,23.84
2022-08-22T15:29:08.543Z,23.82
2022-08-22T15:31:10.443Z,23.81
2022-08-22T15:33:11.851Z,23.56
2022-08-22T15:35:13.819Z,23.51
2022-08-22T15:37:16.462Z,23.71
2022-08-22T15:39:18.339Z,23.76
2022-08-22T15:41:19.646Z,23.81
2022-08-22T15:43:23.424Z,23.84
2022-08-22T15:45:25.138Z,23.81
2022-08-22T15:47:28.502Z,23.74
2022-08-22T15:49:32.975Z,23.83
2022-08-22T15:51:35.515Z,23.77
2022-08-22T15:53:38.806Z,23.84
2022-08-22T15:55:42.327Z,23.84
2022-08-22T15:57:43.670Z,23.84
2022-08-22T15:59:54.267Z,23.91
2022-08-22T16:01:55.919Z,23.88
2022-08-22T16:03:57.382Z,23.87
2022-08-22T16:05:58.877Z,23.88
2022-08-22T16:08:00.230Z,23.90
2022-08-22T16:10:01.591Z,23.90
2022-08-22T16:12:02.923Z,23.83
2022-08-22T16:14:04.232Z,23.65
2022-08-22T16:16:08.414Z,23.48
2022-08-22T16:18:09.710Z,23.65
2022-08-22T16:20:19.666Z,23.73
2022-08-22T16:22:21.198Z,23.78
2022-08-22T16:24:22.574Z,23.79
2022-08-22T16:26:23.886Z,23.79
2022-08-22T16:28:41.543Z,23.81
2022-08-22T16:30:46.486Z,23.84
2022-08-22T16:32:47.795Z,23.80
2022-08-22T16:34:50.302Z,23.81
2022-08-22T16:36:51.669Z,23.81
2022-08-22T16:38:53.030Z,23.85
2022-08-22T16:40:54.383Z,23.86
2022-08-22T16:42:55.701Z,23.83
2022-08-22T16:44:57.007Z,23.85
2022-08-22T16:46:58.321Z,23.83
2022-08-22T16:48:59.624Z,23.82
2022-08-22T16:51:00.922Z,23.76
2022-08-22T16:53:02.299Z,23.42
2022-08-22T16:55:03.647Z,23.67
2022-08-22T16:57:05.602Z,23.78
2022-08-22T16:59:22.532Z,23.83
2022-08-22T17:01:25.056Z,23.90
2022-08-22T17:03:26.390Z,23.95
2022-08-22T17:05:29.494Z,23.97
2022-08-22T17:07:31.774Z,23.94
2022-08-22T17:09:33.083Z,23.53
2022-08-22T17:11:34.386Z,23.52
2022-08-22T17:13:35.758Z,23.73
2022-08-22T17:15:37.066Z,23.89
2022-08-22T17:17:38.430Z,23.92
2022-08-22T17:19:40.076Z,23.93
2022-08-22T17:21:41.591Z,23.96
2022-08-22T17:23:52.986Z,23.88
2022-08-22T17:25:54.350Z,23.93
2022-08-22T17:27:55.704Z,23.98
2022-08-22T17:29:57.121Z,24.03
2022-08-22T17:31:58.595Z,24.00
2022-08-22T17:33:59.931Z,24.03
2022-08-22T17:36:01.350Z,24.06
2022-08-22T17:38:02.703Z,24.01
2022-08-22T17:40:04.383Z,24.03
2022-08-22T17:42:05.760Z,24.04
2022-08-22T17:44:07.072Z,23.77
2022-08-22T17:46:13.566Z,23.74
2022-08-22T17:48:15.058Z,23.88
2022-08-22T17:50:16.354Z,23.99
2022-08-22T17:52:17.661Z,24.05
2022-08-22T17:54:19.487Z,24.07
2022-08-22T17:56:20.890Z,24.12
2022-08-22T17:58:37.860Z,24.08
2022-08-22T18:00:43.562Z,24.09
2022-08-22T18:02:45.471Z,24.04
2022-08-22T18:04:47.560Z,24.12
2022-08-22T18:06:49.035Z,24.09
2022-08-22T18:09:15.230Z,24.12
2022-08-22T18:11:16.663Z,24.09
2022-08-22T18:13:17.976Z,24.09
2022-08-22T18:15:19.279Z,24.15
2022-08-22T18:17:20.666Z,24.21
2022-08-22T18:19:22.009Z,24.15
2022-08-22T18:21:23.308Z,24.18
2022-08-22T18:23:36.256Z,24.23
2022-08-22T18:25:42.034Z,24.22
2022-08-22T18:27:43.362Z,24.19
2022-08-22T18:29:44.667Z,24.24
2022-08-22T18:31:45.975Z,24.22
2022-08-22T18:33:47.324Z,24.19
2022-08-22T18:35:53.889Z,24.18
2022-08-22T18:37:56.352Z,24.23
2022-08-22T18:40:00.808Z,23.92
2022-08-22T18:42:02.169Z,23.77
2022-08-22T18:44:04.858Z,23.99
2022-08-22T18:46:06.243Z,24.07
2022-08-22T18:48:07.622Z,24.13
2022-08-22T18:50:08.930Z,24.19
2022-08-22T18:52:10.841Z,24.21
2022-08-22T18:54:12.450Z,24.17
2022-08-22T18:56:13.803Z,24.21
2022-08-22T18:58:15.560Z,24.19
2022-08-22T19:00:17.080Z,24.20
2022-08-22T19:02:18.496Z,24.20
2022-08-22T19:04:20.840Z,24.21
2022-08-22T19:06:24.620Z,24.20
2022-08-22T19:08:25.927Z,24.25
2022-08-22T19:10:28.364Z,24.22
2022-08-22T19:12:29.690Z,24.18
2022-08-22T19:14:31.660Z,24.18
2022-08-22T19:16:33.031Z,24.19
2022-08-22T19:18:36.206Z,24.22
2022-08-22T19:21:03.658Z,24.24
2022-08-22T19:23:04.963Z,24.23
2022-08-22T19:25:08.857Z,24.21
2022-08-22T19:27:11.683Z,24.22
2022-08-22T19:29:13.111Z,24.23
2022-08-22T19:31:16.560Z,24.25
2022-08-22T19:33:19.868Z,24.24
2022-08-22T19:35:29.234Z,24.27
2022-08-22T19:37:34.082Z,23.98
2022-08-22T19:39:35.656Z,23.75
2022-08-22T19:41:37.251Z,23.63
2022-08-22T19:43:38.678Z,23.56
2022-08-22T19:45:39.987Z,23.51
2022-08-22T19:47:41.296Z,23.48
2022-08-22T19:49:42.634Z,23.45
2022-08-22T19:51:45.958Z,23.71
2022-08-22T19:53:47.307Z,23.88
2022-08-22T19:55:48.617Z,24.07
2022-08-22T19:57:54.205Z,24.17
2022-08-22T20:00:00.123Z,24.10
2022-08-22T20:02:01.565Z,24.11
2022-08-22T20:04:03.674Z,24.14
2022-08-22T20:06:06.990Z,24.18
2022-08-22T20:08:12.041Z,24.22
2022-08-22T20:10:13.359Z,24.19
2022-08-22T20:12:15.696Z,24.12
2022-08-22T20:14:17.498Z,24.18
2022-08-22T20:16:23.787Z,24.03
2022-08-22T20:20:46.430Z,23.58
2022-08-22T20:22:47.734Z,23.55
2022-08-22T20:24:49.235Z,23.51
2022-08-22T20:27:12.135Z,23.48
2022-08-22T20:29:12.006Z,23.43
2022-08-22T20:31:13.694Z,23.40
2022-08-22T20:33:17.475Z,23.37
2022-08-22T20:35:18.777Z,23.33
2022-08-22T20:37:36.007Z,23.31
2022-08-22T20:39:44.372Z,23.29
2022-08-22T20:41:45.727Z,23.26
2022-08-22T20:43:47.310Z,23.25
2022-08-22T20:45:48.731Z,23.22
2022-08-22T20:47:50.495Z,23.21
2022-08-22T20:49:51.907Z,23.20
2022-08-22T20:51:53.273Z,23.18
2022-08-22T20:53:54.681Z,23.16
2022-08-22T20:55:56.379Z,23.14
2022-08-22T20:57:57.838Z,23.11
2022-08-22T20:59:59.185Z,23.08
2022-08-22T21:02:00.579Z,23.08
2022-08-22T21:04:02.000Z,23.07
2022-08-22T21:06:03.339Z,23.04
2022-08-22T21:08:05.102Z,23.03
2022-08-22T21:10:24.918Z,23.01
2022-08-22T21:12:27.750Z,22.99
2022-08-22T21:14:29.046Z,22.98
2022-08-22T21:16:31.638Z,22.97
2022-08-22T21:18:33.155Z,22.96
2022-08-22T21:20:34.488Z,22.95
2022-08-22T21:22:35.848Z,22.95
2022-08-22T21:24:37.199Z,22.93
2022-08-22T21:26:38.502Z,22.93
2022-08-22T21:28:39.837Z,22.90
2022-08-22T21:30:41.175Z,22.90
2022-08-22T21:32:53.628Z,22.89
2022-08-22T21:34:56.981Z,22.89
2022-08-22T21:36:58.284Z,22.87
2022-08-22T21:38:59.605Z,22.86
2022-08-22T21:41:01.142Z,22.86
2022-08-22T21:43:02.504Z,22.85
2022-08-22T21:45:03.899Z,22.84
2022-08-22T21:47:05.244Z,22.86
2022-08-22T21:49:07.192Z,22.85
2022-08-22T21:51:08.552Z,22.84
2022-08-22T21:53:11.831Z,22.83
2022-08-22T21:55:13.443Z,22.82
2022-08-22T21:57:14.783Z,22.82
2022-08-22T21:59:16.091Z,22.81
2022-08-22T22:01:17.501Z,22.79
2022-08-22T22:03:20.005Z,22.77
2022-08-22T22:05:21.319Z,22.80
2022-08-22T22:07:22.667Z,22.84
2022-08-22T22:09:23.987Z,22.87
2022-08-22T22:11:25.419Z,22.87
2022-08-22T22:13:27.162Z,22.84
2022-08-22T22:15:31.850Z,22.82
2022-08-22T22:17:33.299Z,22.82
2022-08-22T22:19:34.651Z,22.80
2022-08-22T22:21:36.022Z,22.79
2022-08-22T22:23:37.340Z,22.77
2022-08-22T22:25:42.006Z,22.75
2022-08-22T22:27:43.755Z,22.74
2022-08-22T22:29:45.065Z,22.77
2022-08-22T22:31:46.463Z,22.77
2022-08-22T22:33:47.814Z,22.76
2022-08-22T22:35:49.139Z,22.77
2022-08-22T22:37:50.478Z,22.77
2022-08-22T22:39:51.842Z,22.76
2022-08-22T22:41:53.552Z,22.78
2022-08-22T22:43:54.886Z,22.79
2022-08-22T22:45:56.449Z,22.79
2022-08-22T22:47:58.171Z,22.79
2022-08-22T22:49:59.604Z,22.79
2022-08-22T22:52:00.910Z,22.79
2022-08-22T22:54:02.297Z,22.78
2022-08-22T22:56:03.598Z,22.79
2022-08-22T22:58:04.939Z,22.78
2022-08-22T23:00:06.335Z,22.78
2022-08-22T23:02:07.663Z,22.78
2022-08-22T23:04:09.022Z,22.78
2022-08-22T23:06:10.319Z,22.76
2022-08-22T23:08:11.627Z,22.76
2022-08-22T23:10:12.927Z,22.77
2022-08-22T23:12:14.266Z,22.75
2022-08-22T23:14:15.651Z,22.73
2022-08-22T23:16:17.060Z,22.70
2022-08-22T23:18:18.416Z,22.69
2022-08-22T23:20:22.353Z,22.67
2022-08-22T23:22:23.674Z,22.67
2022-08-22T23:24:25.122Z,22.67
2022-08-22T23:26:26.507Z,22.67
2022-08-22T23:28:27.919Z,22.66
2022-08-22T23:30:30.303Z,22.65
2022-08-22T23:32:31.623Z,22.65
2022-08-22T23:34:32.995Z,22.71
2022-08-22T23:36:34.298Z,22.78
2022-08-22T23:38:35.607Z,22.80
2022-08-22T23:40:36.937Z,22.81
2022-08-22T23:42:38.457Z,22.81
2022-08-22T23:44:39.841Z,22.81
2022-08-22T23:46:41.163Z,22.81
2022-08-22T23:48:42.632Z,22.80
2022-08-22T23:50:44.047Z,22.79
2022-08-22T23:52:45.376Z,22.78
2022-08-22T23:54:46.791Z,22.77
2022-08-22T23:56:51.551Z,22.80
2022-08-22T23:58:53.350Z,22.81
